Aviation Digital Data Service (ADDS)

Output produced by METARs form (0015 UTC 23 March 2019)
found at http://www.aviationweather.gov/metar/data/
 
Forecast for: MHTG (TEGUCIGALPA/TON , HN)
Text: TAF MHTG 222255Z 2300/2324 04010KT 9999 SCT028 BKN070 TX30/2321Z TN14/2312Z
Forecast period: 0000 to 0200 UTC 23 March 2019
Forecast type: FROM: standard forecast or significant change
Winds: from the NE (40 degrees) at 12 MPH (10 knots; 5.1 m/s)
Visibility: 6 or more miles 10+ km)
Ceiling: 7000 feet AGL
Clouds: scattered clouds at 2800 feet AGL
broken clouds at 7000 feet AGL
Weather: no significant weather forecast for this period
Text: BECMG 2302/2304 02005KT FEW026 SCT080
Forecast period: 0200 to 0600 UTC 23 March 2019
Forecast type: BECOMING: Conditions expected to become as follows by 0400 UTC 23 March 2019
Winds: from the NNE (20 degrees) at 6 MPH (5 knots; 2.6 m/s)
Visibility: 6 or more miles 10+ km)
Ceiling: at least 12,000 feet AGL
Clouds: few clouds at 2600 feet AGL
scattered clouds at 8000 feet AGL
Weather: no significant weather forecast for this period
Text: BECMG 2306/2308 FEW028
Forecast period: 0600 UTC 23 March 2019 to 0000 UTC 24 March 2019
Forecast type: BECOMING: Conditions expected to become as follows by 0800 UTC 23 March 2019
Winds: from the NNE (20 degrees) at 6 MPH (5 knots; 2.6 m/s)
Visibility: 6 or more miles 10+ km)
Ceiling: at least 12,000 feet AGL
Clouds: few clouds at 2800 feet AGL
Weather: no significant weather forecast for this period